Terminal Aerodrome Forecast
Issued by NWS Rapid City, SD

Home | Current Version | Previous Version | Graphics & Text | Print | Product List | Glossary On
Versions: 1 2 3 4 5 6 7 8 9 10 11 12 13 14 15 16 17 18 19 20 21 22
000
FTUS43 KUNR 261728
TAFRAP
TAF
KRAP 261728Z 2618/2718 15007KT P6SM BKN015 OVC025
     FM261900 15007KT P6SM BKN025
     FM262100 16008KT P6SM SCT020 BKN040
     FM270300 VRB05KT P6SM VCTS BKN050CB OVC100
     FM270600 VRB05KT P6SM SCT150=

USA.gov is the U.S. government's official web portal to all federal, state and local government web resources and services.